sensor_id;sensor_type;location;lat;lon;timestamp;pressure;altitude;pressure_sealevel;temperature;humidity
36138;BME280;67787;50.074;21.904;2023-03-05T00:01:39;98663.66;;;0.34;68.70
36138;BME280;67787;50.074;21.904;2023-03-05T00:04:13;98666.94;;;0.36;68.84
36138;BME280;67787;50.074;21.904;2023-03-05T00:06:42;98666.10;;;0.35;68.60
36138;BME280;67787;50.074;21.904;2023-03-05T00:09:10;98663.09;;;0.31;68.46
36138;BME280;67787;50.074;21.904;2023-03-05T00:11:37;98662.30;;;0.28;68.46
36138;BME280;67787;50.074;21.904;2023-03-05T00:14:06;98666.35;;;0.27;68.57
36138;BME280;67787;50.074;21.904;2023-03-05T00:16:34;98664.77;;;0.28;68.73
36138;BME280;67787;50.074;21.904;2023-03-05T00:19:02;98662.64;;;0.29;68.69
36138;BME280;67787;50.074;21.904;2023-03-05T00:21:34;98660.38;;;0.28;68.70
36138;BME280;67787;50.074;21.904;2023-03-05T00:24:05;98656.38;;;0.28;68.79
36138;BME280;67787;50.074;21.904;2023-03-05T00:26:36;98656.09;;;0.27;68.55
36138;BME280;67787;50.074;21.904;2023-03-05T00:29:07;98655.95;;;0.26;68.43
36138;BME280;67787;50.074;21.904;2023-03-05T00:31:46;98657.40;;;0.24;68.46
36138;BME280;67787;50.074;21.904;2023-03-05T00:34:17;98653.42;;;0.23;68.45
36138;BME280;67787;50.074;21.904;2023-03-05T00:36:50;98650.43;;;0.20;68.31
36138;BME280;67787;50.074;21.904;2023-03-05T00:39:19;98646.54;;;0.17;68.32
36138;BME280;67787;50.074;21.904;2023-03-05T00:41:47;98643.13;;;0.14;68.35
36138;BME280;67787;50.074;21.904;2023-03-05T00:44:15;98647.50;;;0.14;68.27
36138;BME280;67787;50.074;21.904;2023-03-05T00:46:47;98640.66;;;0.15;68.46
36138;BME280;67787;50.074;21.904;2023-03-05T00:49:21;98636.98;;;0.15;68.42
36138;BME280;67787;50.074;21.904;2023-03-05T00:51:49;98638.42;;;0.14;68.19
36138;BME280;67787;50.074;21.904;2023-03-05T00:54:17;98639.84;;;0.13;68.24
36138;BME280;67787;50.074;21.904;2023-03-05T00:56:46;98638.50;;;0.12;68.18
36138;BME280;67787;50.074;21.904;2023-03-05T00:59:18;98633.70;;;0.10;68.22
36138;BME280;67787;50.074;21.904;2023-03-05T01:01:46;98632.49;;;0.09;68.13
36138;BME280;67787;50.074;21.904;2023-03-05T01:04:22;98627.41;;;0.10;68.12
36138;BME280;67787;50.074;21.904;2023-03-05T01:06:55;98628.29;;;0.10;68.13
36138;BME280;67787;50.074;21.904;2023-03-05T01:09:23;98627.30;;;0.08;68.12
36138;BME280;67787;50.074;21.904;2023-03-05T01:11:59;98625.98;;;0.06;67.97
36138;BME280;67787;50.074;21.904;2023-03-05T01:14:27;98627.30;;;0.04;67.92
36138;BME280;67787;50.074;21.904;2023-03-05T01:16:55;98625.28;;;0.02;68.05
36138;BME280;67787;50.074;21.904;2023-03-05T01:19:23;98621.66;;;0.00;67.93
36138;BME280;67787;50.074;21.904;2023-03-05T01:21:51;98616.16;;;-0.02;67.89
36138;BME280;67787;50.074;21.904;2023-03-05T01:24:21;98617.31;;;-0.05;67.71
36138;BME280;67787;50.074;21.904;2023-03-05T01:26:52;98615.41;;;-0.10;67.56
36138;BME280;67787;50.074;21.904;2023-03-05T01:29:20;98616.11;;;-0.15;67.42
36138;BME280;67787;50.074;21.904;2023-03-05T01:31:48;98623.77;;;-0.20;67.48
36138;BME280;67787;50.074;21.904;2023-03-05T01:34:17;98619.30;;;-0.26;67.53
36138;BME280;67787;50.074;21.904;2023-03-05T01:36:46;98618.73;;;-0.30;67.57
36138;BME280;67787;50.074;21.904;2023-03-05T01:39:16;98621.91;;;-0.36;67.62
36138;BME280;67787;50.074;21.904;2023-03-05T01:41:45;98628.66;;;-0.40;67.54
36138;BME280;67787;50.074;21.904;2023-03-05T01:44:25;98622.83;;;-0.42;67.62
36138;BME280;67787;50.074;21.904;2023-03-05T01:46:54;98625.03;;;-0.45;67.61
36138;BME280;67787;50.074;21.904;2023-03-05T01:49:32;98622.02;;;-0.49;67.62
36138;BME280;67787;50.074;21.904;2023-03-05T01:52:16;98630.80;;;-0.51;67.68
36138;BME280;67787;50.074;21.904;2023-03-05T01:57:40;98632.23;;;-0.52;67.79
36138;BME280;67787;50.074;21.904;2023-03-05T02:00:19;98625.51;;;-0.55;67.62
36138;BME280;67787;50.074;21.904;2023-03-05T02:02:52;98628.02;;;-0.61;67.56
36138;BME280;67787;50.074;21.904;2023-03-05T02:05:26;98624.98;;;-0.70;67.56
36138;BME280;67787;50.074;21.904;2023-03-05T02:08:01;98624.34;;;-0.77;67.36
36138;BME280;67787;50.074;21.904;2023-03-05T02:10:37;98624.09;;;-0.85;67.20
36138;BME280;67787;50.074;21.904;2023-03-05T02:13:16;98626.77;;;-0.92;67.15
36138;BME280;67787;50.074;21.904;2023-03-05T02:15:45;98629.45;;;-1.00;67.08
36138;BME280;67787;50.074;21.904;2023-03-05T02:18:23;98626.50;;;-1.11;67.15
36138;BME280;67787;50.074;21.904;2023-03-05T02:23:25;98621.57;;;-1.26;67.29
36138;BME280;67787;50.074;21.904;2023-03-05T02:25:55;98616.98;;;-1.29;67.04
36138;BME280;67787;50.074;21.904;2023-03-05T02:28:45;98618.36;;;-1.35;67.03
36138;BME280;67787;50.074;21.904;2023-03-05T02:31:18;98617.55;;;-1.42;67.11
36138;BME280;67787;50.074;21.904;2023-03-05T02:33:47;98626.36;;;-1.45;67.39
36138;BME280;67787;50.074;21.904;2023-03-05T02:36:17;98621.73;;;-1.47;67.14
36138;BME280;67787;50.074;21.904;2023-03-05T02:38:55;98619.21;;;-1.51;66.94
36138;BME280;67787;50.074;21.904;2023-03-05T02:41:26;98609.76;;;-1.54;67.07
36138;BME280;67787;50.074;21.904;2023-03-05T02:43:55;98613.23;;;-1.60;67.35
36138;BME280;67787;50.074;21.904;2023-03-05T02:46:23;98610.05;;;-1.64;67.06
36138;BME280;67787;50.074;21.904;2023-03-05T02:48:51;98618.09;;;-1.72;66.92
36138;BME280;67787;50.074;21.904;2023-03-05T02:51:19;98613.25;;;-1.79;66.93
36138;BME280;67787;50.074;21.904;2023-03-05T02:53:47;98609.67;;;-1.87;66.83
36138;BME280;67787;50.074;21.904;2023-03-05T02:56:19;98608.76;;;-1.91;66.94
36138;BME280;67787;50.074;21.904;2023-03-05T02:58:47;98609.67;;;-1.92;67.09
36138;BME280;67787;50.074;21.904;2023-03-05T03:01:18;98605.02;;;-1.94;66.83
36138;BME280;67787;50.074;21.904;2023-03-05T03:03:47;98605.98;;;-1.98;66.99
36138;BME280;67787;50.074;21.904;2023-03-05T03:06:15;98607.17;;;-2.02;66.84
36138;BME280;67787;50.074;21.904;2023-03-05T03:08:43;98599.81;;;-2.06;66.82
36138;BME280;67787;50.074;21.904;2023-03-05T03:11:12;98600.20;;;-2.07;67.02
36138;BME280;67787;50.074;21.904;2023-03-05T03:13:40;98603.42;;;-2.11;67.00
36138;BME280;67787;50.074;21.904;2023-03-05T03:16:11;98609.87;;;-2.12;66.96
36138;BME280;67787;50.074;21.904;2023-03-05T03:18:42;98612.67;;;-2.13;67.21
36138;BME280;67787;50.074;21.904;2023-03-05T03:21:36;98611.48;;;-2.14;66.97
36138;BME280;67787;50.074;21.904;2023-03-05T03:24:04;98611.50;;;-2.14;66.88
36138;BME280;67787;50.074;21.904;2023-03-05T03:26:32;98615.70;;;-2.16;67.09
36138;BME280;67787;50.074;21.904;2023-03-05T03:29:00;98613.13;;;-2.17;67.08
36138;BME280;67787;50.074;21.904;2023-03-05T03:31:28;98610.54;;;-2.17;66.97
36138;BME280;67787;50.074;21.904;2023-03-05T03:33:56;98609.60;;;-2.21;66.91
36138;BME280;67787;50.074;21.904;2023-03-05T03:36:24;98605.48;;;-2.23;67.28
36138;BME280;67787;50.074;21.904;2023-03-05T03:38:53;98605.38;;;-2.25;67.07
36138;BME280;67787;50.074;21.904;2023-03-05T03:41:24;98602.77;;;-2.24;66.82
36138;BME280;67787;50.074;21.904;2023-03-05T03:43:56;98601.18;;;-2.25;67.25
36138;BME280;67787;50.074;21.904;2023-03-05T03:46:28;98601.29;;;-2.28;67.16
36138;BME280;67787;50.074;21.904;2023-03-05T03:48:56;98596.17;;;-2.32;66.91
36138;BME280;67787;50.074;21.904;2023-03-05T03:51:24;98599.58;;;-2.35;66.89
36138;BME280;67787;50.074;21.904;2023-03-05T03:53:52;98592.61;;;-2.34;66.87
36138;BME280;67787;50.074;21.904;2023-03-05T03:56:20;98590.29;;;-2.32;66.95
36138;BME280;67787;50.074;21.904;2023-03-05T03:58:57;98589.09;;;-2.27;67.29
36138;BME280;67787;50.074;21.904;2023-03-05T04:01:24;98585.06;;;-2.19;67.21
36138;BME280;67787;50.074;21.904;2023-03-05T04:03:56;98583.05;;;-2.15;66.96
36138;BME280;67787;50.074;21.904;2023-03-05T04:06:24;98576.52;;;-2.12;67.27
36138;BME280;67787;50.074;21.904;2023-03-05T04:08:52;98573.14;;;-2.09;67.27
36138;BME280;67787;50.074;21.904;2023-03-05T04:11:20;98571.56;;;-2.08;67.08
36138;BME280;67787;50.074;21.904;2023-03-05T04:14:05;98569.20;;;-2.05;67.20
36138;BME280;67787;50.074;21.904;2023-03-05T04:16:33;98564.95;;;-2.03;67.16
36138;BME280;67787;50.074;21.904;2023-03-05T04:19:06;98557.84;;;-2.03;67.27
36138;BME280;67787;50.074;21.904;2023-03-05T04:21:34;98553.77;;;-2.06;67.09
36138;BME280;67787;50.074;21.904;2023-03-05T04:24:11;98550.30;;;-2.07;67.34
36138;BME280;67787;50.074;21.904;2023-03-05T04:26:42;98543.38;;;-2.07;67.18
36138;BME280;67787;50.074;21.904;2023-03-05T04:29:10;98545.00;;;-2.03;67.17
36138;BME280;67787;50.074;21.904;2023-03-05T04:31:38;98545.70;;;-2.04;67.29
36138;BME280;67787;50.074;21.904;2023-03-05T04:34:06;98536.69;;;-2.04;67.33
36138;BME280;67787;50.074;21.904;2023-03-05T04:36:34;98539.48;;;-2.05;67.19
36138;BME280;67787;50.074;21.904;2023-03-05T04:39:02;98539.92;;;-2.03;67.30
36138;BME280;67787;50.074;21.904;2023-03-05T04:41:31;98538.25;;;-1.99;67.43
36138;BME280;67787;50.074;21.904;2023-03-05T04:43:59;98532.28;;;-1.91;67.41
36138;BME280;67787;50.074;21.904;2023-03-05T04:46:27;98536.25;;;-1.84;67.64
36138;BME280;67787;50.074;21.904;2023-03-05T04:48:56;98536.73;;;-1.77;67.44
36138;BME280;67787;50.074;21.904;2023-03-05T04:51:24;98535.88;;;-1.72;67.58
36138;BME280;67787;50.074;21.904;2023-03-05T04:53:52;98531.92;;;-1.68;67.47
36138;BME280;67787;50.074;21.904;2023-03-05T04:56:20;98536.80;;;-1.63;67.45
36138;BME280;67787;50.074;21.904;2023-03-05T04:58:50;98530.98;;;-1.60;67.71
36138;BME280;67787;50.074;21.904;2023-03-05T05:01:18;98531.30;;;-1.54;67.59
36138;BME280;67787;50.074;21.904;2023-03-05T05:03:47;98533.21;;;-1.48;67.60
36138;BME280;67787;50.074;21.904;2023-03-05T05:06:15;98525.23;;;-1.43;67.65
36138;BME280;67787;50.074;21.904;2023-03-05T05:08:43;98526.10;;;-1.38;67.58
36138;BME280;67787;50.074;21.904;2023-03-05T05:11:12;98524.13;;;-1.36;67.57
36138;BME280;67787;50.074;21.904;2023-03-05T05:13:40;98526.61;;;-1.32;67.78
36138;BME280;67787;50.074;21.904;2023-03-05T05:16:08;98524.52;;;-1.26;67.54
36138;BME280;67787;50.074;21.904;2023-03-05T05:18:37;98527.77;;;-1.20;67.41
36138;BME280;67787;50.074;21.904;2023-03-05T05:21:10;98528.31;;;-1.15;67.67
36138;BME280;67787;50.074;21.904;2023-03-05T05:23:41;98527.40;;;-1.08;67.85
36138;BME280;67787;50.074;21.904;2023-03-05T05:26:11;98529.52;;;-1.00;68.04
36138;BME280;67787;50.074;21.904;2023-03-05T05:28:43;98530.09;;;-0.96;67.67
36138;BME280;67787;50.074;21.904;2023-03-05T05:31:13;98532.92;;;-0.92;67.94
36138;BME280;67787;50.074;21.904;2023-03-05T05:36:34;98529.27;;;-0.86;67.77
36138;BME280;67787;50.074;21.904;2023-03-05T05:39:02;98533.17;;;-0.84;67.52
36138;BME280;67787;50.074;21.904;2023-03-05T05:41:31;98530.24;;;-0.80;67.68
36138;BME280;67787;50.074;21.904;2023-03-05T05:43:59;98530.66;;;-0.77;67.70
36138;BME280;67787;50.074;21.904;2023-03-05T05:46:27;98525.03;;;-0.70;67.83
36138;BME280;67787;50.074;21.904;2023-03-05T05:48:55;98527.02;;;-0.67;67.79
36138;BME280;67787;50.074;21.904;2023-03-05T05:51:23;98525.55;;;-0.65;67.56
36138;BME280;67787;50.074;21.904;2023-03-05T05:53:52;98523.16;;;-0.61;67.62
36138;BME280;67787;50.074;21.904;2023-03-05T05:56:20;98515.73;;;-0.58;67.78
36138;BME280;67787;50.074;21.904;2023-03-05T05:58:48;98510.27;;;-0.56;67.91
36138;BME280;67787;50.074;21.904;2023-03-05T06:01:27;98510.31;;;-0.53;67.69
36138;BME280;67787;50.074;21.904;2023-03-05T06:03:56;98514.33;;;-0.48;67.65
36138;BME280;67787;50.074;21.904;2023-03-05T06:06:26;98515.69;;;-0.42;67.93
36138;BME280;67787;50.074;21.904;2023-03-05T06:08:54;98518.43;;;-0.37;67.98
36138;BME280;67787;50.074;21.904;2023-03-05T06:11:22;98522.41;;;-0.31;67.84
36138;BME280;67787;50.074;21.904;2023-03-05T06:13:50;98522.67;;;-0.28;67.76
36138;BME280;67787;50.074;21.904;2023-03-05T06:16:20;98521.66;;;-0.25;67.73
36138;BME280;67787;50.074;21.904;2023-03-05T06:18:49;98522.26;;;-0.22;67.89
36138;BME280;67787;50.074;21.904;2023-03-05T06:21:19;98525.29;;;-0.19;67.88
36138;BME280;67787;50.074;21.904;2023-03-05T06:23:49;98527.70;;;-0.19;67.47
36138;BME280;67787;50.074;21.904;2023-03-05T06:26:19;98528.23;;;-0.19;67.64
36138;BME280;67787;50.074;21.904;2023-03-05T06:28:47;98525.70;;;-0.17;67.75
36138;BME280;67787;50.074;21.904;2023-03-05T06:31:22;98523.92;;;-0.15;67.68
36138;BME280;67787;50.074;21.904;2023-03-05T06:33:57;98522.52;;;-0.15;67.54
36138;BME280;67787;50.074;21.904;2023-03-05T06:36:30;98523.77;;;-0.16;67.52
36138;BME280;67787;50.074;21.904;2023-03-05T06:38:58;98526.89;;;-0.15;67.50
36138;BME280;67787;50.074;21.904;2023-03-05T06:41:28;98526.94;;;-0.17;67.37
36138;BME280;67787;50.074;21.904;2023-03-05T06:43:58;98531.81;;;-0.17;67.38
36138;BME280;67787;50.074;21.904;2023-03-05T06:46:29;98536.88;;;-0.17;67.41
36138;BME280;67787;50.074;21.904;2023-03-05T06:49:00;98534.38;;;-0.15;67.23
36138;BME280;67787;50.074;21.904;2023-03-05T06:51:31;98531.73;;;-0.14;67.40
36138;BME280;67787;50.074;21.904;2023-03-05T06:54:10;98535.09;;;-0.11;67.28
36138;BME280;67787;50.074;21.904;2023-03-05T06:56:43;98535.23;;;-0.10;67.17
36138;BME280;67787;50.074;21.904;2023-03-05T06:59:14;98534.72;;;-0.06;67.37
36138;BME280;67787;50.074;21.904;2023-03-05T07:01:45;98534.86;;;0.00;67.42
36138;BME280;67787;50.074;21.904;2023-03-05T07:04:13;98533.86;;;0.04;67.31
36138;BME280;67787;50.074;21.904;2023-03-05T07:06:42;98534.09;;;0.06;67.36
36138;BME280;67787;50.074;21.904;2023-03-05T07:09:13;98531.82;;;0.11;67.50
36138;BME280;67787;50.074;21.904;2023-03-05T07:11:43;98530.77;;;0.16;67.49
36138;BME280;67787;50.074;21.904;2023-03-05T07:14:11;98530.44;;;0.20;67.48
36138;BME280;67787;50.074;21.904;2023-03-05T07:16:39;98529.98;;;0.23;67.35
36138;BME280;67787;50.074;21.904;2023-03-05T07:19:10;98528.91;;;0.23;67.41
36138;BME280;67787;50.074;21.904;2023-03-05T07:21:43;98528.30;;;0.26;67.54
36138;BME280;67787;50.074;21.904;2023-03-05T07:24:12;98532.52;;;0.29;67.52
36138;BME280;67787;50.074;21.904;2023-03-05T07:26:40;98529.95;;;0.33;67.64
36138;BME280;67787;50.074;21.904;2023-03-05T07:29:09;98529.09;;;0.37;67.56
36138;BME280;67787;50.074;21.904;2023-03-05T07:31:37;98524.83;;;0.39;67.56
36138;BME280;67787;50.074;21.904;2023-03-05T07:34:05;98526.72;;;0.39;67.34
36138;BME280;67787;50.074;21.904;2023-03-05T07:36:34;98525.98;;;0.40;67.58
36138;BME280;67787;50.074;21.904;2023-03-05T07:39:02;98525.52;;;0.43;67.39
36138;BME280;67787;50.074;21.904;2023-03-05T07:41:42;98520.20;;;0.45;67.42
36138;BME280;67787;50.074;21.904;2023-03-05T07:44:14;98519.55;;;0.48;67.53
36138;BME280;67787;50.074;21.904;2023-03-05T07:46:52;98516.62;;;0.52;67.20
36138;BME280;67787;50.074;21.904;2023-03-05T07:49:21;98515.87;;;0.53;67.39
36138;BME280;67787;50.074;21.904;2023-03-05T07:51:52;98522.52;;;0.57;67.51
36138;BME280;67787;50.074;21.904;2023-03-05T07:54:25;98522.55;;;0.61;67.01
36138;BME280;67787;50.074;21.904;2023-03-05T07:56:54;98522.39;;;0.61;67.17
36138;BME280;67787;50.074;21.904;2023-03-05T07:59:24;98522.58;;;0.64;67.29
36138;BME280;67787;50.074;21.904;2023-03-05T08:01:53;98520.52;;;0.68;67.16
36138;BME280;67787;50.074;21.904;2023-03-05T08:04:21;98520.17;;;0.72;67.19
36138;BME280;67787;50.074;21.904;2023-03-05T08:06:49;98522.08;;;0.77;67.07
36138;BME280;67787;50.074;21.904;2023-03-05T08:09:17;98517.90;;;0.85;67.26
36138;BME280;67787;50.074;21.904;2023-03-05T08:11:47;98512.60;;;0.90;67.24
36138;BME280;67787;50.074;21.904;2023-03-05T08:14:15;98512.34;;;0.97;67.26
36138;BME280;67787;50.074;21.904;2023-03-05T08:16:44;98512.04;;;1.04;66.75
36138;BME280;67787;50.074;21.904;2023-03-05T08:19:15;98510.09;;;1.00;66.30
36138;BME280;67787;50.074;21.904;2023-03-05T08:21:47;98506.40;;;1.01;66.78
36138;BME280;67787;50.074;21.904;2023-03-05T08:24:31;98503.42;;;1.05;66.49
36138;BME280;67787;50.074;21.904;2023-03-05T08:27:02;98497.54;;;1.08;66.57
36138;BME280;67787;50.074;21.904;2023-03-05T08:29:30;98493.41;;;1.11;65.81
36138;BME280;67787;50.074;21.904;2023-03-05T08:32:00;98490.00;;;1.17;66.82
36138;BME280;67787;50.074;21.904;2023-03-05T08:34:28;98489.71;;;1.28;66.91
36138;BME280;67787;50.074;21.904;2023-03-05T08:36:56;98492.73;;;1.30;66.18
36138;BME280;67787;50.074;21.904;2023-03-05T08:39:24;98494.94;;;1.32;66.66
36138;BME280;67787;50.074;21.904;2023-03-05T08:41:56;98495.04;;;1.34;66.57
36138;BME280;67787;50.074;21.904;2023-03-05T08:44:26;98495.17;;;1.35;66.18
36138;BME280;67787;50.074;21.904;2023-03-05T08:46:54;98490.01;;;1.37;66.48
36138;BME280;67787;50.074;21.904;2023-03-05T08:49:22;98486.89;;;1.44;66.09
36138;BME280;67787;50.074;21.904;2023-03-05T08:51:50;98487.13;;;1.51;65.85
36138;BME280;67787;50.074;21.904;2023-03-05T08:54:19;98485.21;;;1.55;65.82
36138;BME280;67787;50.074;21.904;2023-03-05T08:56:47;98482.90;;;1.59;66.05
36138;BME280;67787;50.074;21.904;2023-03-05T08:59:16;98476.52;;;1.69;66.05
36138;BME280;67787;50.074;21.904;2023-03-05T09:01:44;98475.19;;;1.71;65.83
36138;BME280;67787;50.074;21.904;2023-03-05T09:04:12;98475.79;;;1.73;64.91
36138;BME280;67787;50.074;21.904;2023-03-05T09:06:40;98465.53;;;1.72;65.23
36138;BME280;67787;50.074;21.904;2023-03-05T09:09:09;98449.40;;;1.77;66.10
36138;BME280;67787;50.074;21.904;2023-03-05T09:11:37;98463.29;;;1.91;66.14
36138;BME280;67787;50.074;21.904;2023-03-05T09:14:05;98463.90;;;2.00;66.19
36138;BME280;67787;50.074;21.904;2023-03-05T09:16:33;98462.55;;;2.14;66.13
36138;BME280;67787;50.074;21.904;2023-03-05T09:19:02;98456.97;;;2.24;66.05
36138;BME280;67787;50.074;21.904;2023-03-05T09:21:30;98452.61;;;2.31;66.05
36138;BME280;67787;50.074;21.904;2023-03-05T09:23:59;98447.39;;;2.34;65.58
36138;BME280;67787;50.074;21.904;2023-03-05T09:26:27;98446.90;;;2.37;65.03
36138;BME280;67787;50.074;21.904;2023-03-05T09:28:55;98448.31;;;2.37;65.24
36138;BME280;67787;50.074;21.904;2023-03-05T09:31:23;98447.41;;;2.42;65.76
36138;BME280;67787;50.074;21.904;2023-03-05T09:33:51;98444.30;;;2.44;65.42
36138;BME280;67787;50.074;21.904;2023-03-05T09:36:21;98441.16;;;2.47;65.91
36138;BME280;67787;50.074;21.904;2023-03-05T09:38:51;98436.64;;;2.54;66.29
36138;BME280;67787;50.074;21.904;2023-03-05T09:49:57;98441.42;;;2.39;63.91
36138;BME280;67787;50.074;21.904;2023-03-05T09:52:34;98441.01;;;2.32;63.95
36138;BME280;67787;50.074;21.904;2023-03-05T09:55:09;98438.77;;;2.32;64.20
36138;BME280;67787;50.074;21.904;2023-03-05T09:57:45;98438.24;;;2.28;63.68
36138;BME280;67787;50.074;21.904;2023-03-05T10:03:15;98436.46;;;2.29;64.30
36138;BME280;67787;50.074;21.904;2023-03-05T10:05:47;98438.02;;;2.29;64.99
36138;BME280;67787;50.074;21.904;2023-03-05T10:08:21;98437.99;;;2.33;65.00
36138;BME280;67787;50.074;21.904;2023-03-05T10:10:52;98433.35;;;2.35;64.33
36138;BME280;67787;50.074;21.904;2023-03-05T10:13:26;98431.95;;;2.35;64.21
36138;BME280;67787;50.074;21.904;2023-03-05T10:16:30;98431.27;;;2.31;64.19
36138;BME280;67787;50.074;21.904;2023-03-05T10:22:23;98421.02;;;2.26;63.44
36138;BME280;67787;50.074;21.904;2023-03-05T10:25:07;98414.76;;;2.22;64.13
36138;BME280;67787;50.074;21.904;2023-03-05T10:33:11;98408.84;;;2.29;63.77
36138;BME280;67787;50.074;21.904;2023-03-05T10:38:45;98403.44;;;2.32;62.87
36138;BME280;67787;50.074;21.904;2023-03-05T10:46:37;98389.67;;;2.27;62.57
36138;BME280;67787;50.074;21.904;2023-03-05T10:49:16;98390.02;;;2.27;63.12
36138;BME280;67787;50.074;21.904;2023-03-05T10:51:57;98386.98;;;2.28;63.17
36138;BME280;67787;50.074;21.904;2023-03-05T10:54:34;98387.34;;;2.32;63.33
36138;BME280;67787;50.074;21.904;2023-03-05T10:57:24;98388.84;;;2.29;61.59
36138;BME280;67787;50.074;21.904;2023-03-05T11:00:00;98374.27;;;2.24;62.50
36138;BME280;67787;50.074;21.904;2023-03-05T11:02:52;98373.66;;;2.29;63.22
36138;BME280;67787;50.074;21.904;2023-03-05T11:05:49;98371.88;;;2.33;62.48
36138;BME280;67787;50.074;21.904;2023-03-05T11:11:12;98368.27;;;2.35;63.23
36138;BME280;67787;50.074;21.904;2023-03-05T11:16:21;98361.50;;;2.59;63.71
36138;BME280;67787;50.074;21.904;2023-03-05T11:21:38;98352.04;;;2.59;62.48
36138;BME280;67787;50.074;21.904;2023-03-05T11:24:15;98350.74;;;2.57;62.83
36138;BME280;67787;50.074;21.904;2023-03-05T11:26:47;98340.58;;;2.60;62.96
36138;BME280;67787;50.074;21.904;2023-03-05T11:29:23;98337.26;;;2.70;63.14
36138;BME280;67787;50.074;21.904;2023-03-05T11:31:51;98330.56;;;2.78;63.46
36138;BME280;67787;50.074;21.904;2023-03-05T11:34:23;98321.33;;;2.87;63.89
36138;BME280;67787;50.074;21.904;2023-03-05T11:39:22;98309.02;;;2.95;62.49
36138;BME280;67787;50.074;21.904;2023-03-05T11:41:51;98298.65;;;2.98;63.17
36138;BME280;67787;50.074;21.904;2023-03-05T11:46:52;98285.30;;;3.19;63.60
36138;BME280;67787;50.074;21.904;2023-03-05T11:49:24;98286.55;;;3.25;63.05
36138;BME280;67787;50.074;21.904;2023-03-05T11:54:35;98281.38;;;3.33;63.07
36138;BME280;67787;50.074;21.904;2023-03-05T11:57:09;98277.45;;;3.40;62.67
36138;BME280;67787;50.074;21.904;2023-03-05T11:59:42;98269.35;;;3.48;62.97
36138;BME280;67787;50.074;21.904;2023-03-05T12:02:20;98263.09;;;3.56;63.36
36138;BME280;67787;50.074;21.904;2023-03-05T12:04:50;98252.95;;;3.67;62.79
36138;BME280;67787;50.074;21.904;2023-03-05T12:07:23;98249.05;;;3.72;63.09
36138;BME280;67787;50.074;21.904;2023-03-05T12:09:55;98249.48;;;3.83;62.91
36138;BME280;67787;50.074;21.904;2023-03-05T12:12:43;98249.31;;;3.91;63.01
36138;BME280;67787;50.074;21.904;2023-03-05T12:17:47;98245.77;;;4.05;63.00
36138;BME280;67787;50.074;21.904;2023-03-05T12:20:26;98248.25;;;4.07;62.01
36138;BME280;67787;50.074;21.904;2023-03-05T12:23:01;98250.81;;;4.05;61.62
36138;BME280;67787;50.074;21.904;2023-03-05T12:28:01;98249.02;;;3.81;59.97
36138;BME280;67787;50.074;21.904;2023-03-05T12:33:04;98244.56;;;3.73;61.52
36138;BME280;67787;50.074;21.904;2023-03-05T12:35:38;98240.95;;;3.72;61.32
36138;BME280;67787;50.074;21.904;2023-03-05T12:38:27;98238.39;;;3.77;62.22
36138;BME280;67787;50.074;21.904;2023-03-05T12:46:39;98232.44;;;3.80;61.53
36138;BME280;67787;50.074;21.904;2023-03-05T12:51:56;98230.34;;;3.74;61.59
36138;BME280;67787;50.074;21.904;2023-03-05T12:54:38;98225.27;;;3.70;61.11
36138;BME280;67787;50.074;21.904;2023-03-05T12:57:22;98225.30;;;3.61;59.95
36138;BME280;67787;50.074;21.904;2023-03-05T13:02:35;98212.48;;;3.64;62.01
36138;BME280;67787;50.074;21.904;2023-03-05T13:05:16;98208.97;;;3.73;61.53
36138;BME280;67787;50.074;21.904;2023-03-05T13:07:47;98207.27;;;3.82;62.01
36138;BME280;67787;50.074;21.904;2023-03-05T13:10:26;98206.66;;;3.92;61.50
36138;BME280;67787;50.074;21.904;2023-03-05T13:12:56;98199.93;;;3.96;61.83
36138;BME280;67787;50.074;21.904;2023-03-05T13:15:25;98201.98;;;3.97;61.31
36138;BME280;67787;50.074;21.904;2023-03-05T13:17:56;98200.05;;;3.85;60.68
36138;BME280;67787;50.074;21.904;2023-03-05T13:20:35;98197.49;;;3.68;61.01
36138;BME280;67787;50.074;21.904;2023-03-05T13:25:59;98189.52;;;3.45;61.44
36138;BME280;67787;50.074;21.904;2023-03-05T13:28:28;98187.83;;;3.35;61.47
36138;BME280;67787;50.074;21.904;2023-03-05T13:30:57;98187.02;;;3.28;61.47
36138;BME280;67787;50.074;21.904;2023-03-05T13:33:32;98184.76;;;3.21;61.30
36138;BME280;67787;50.074;21.904;2023-03-05T13:36:01;98187.31;;;3.13;60.83
36138;BME280;67787;50.074;21.904;2023-03-05T13:38:35;98180.81;;;3.07;61.47
36138;BME280;67787;50.074;21.904;2023-03-05T13:41:27;98177.83;;;3.07;61.49
36138;BME280;67787;50.074;21.904;2023-03-05T13:43:59;98171.67;;;3.08;61.74
36138;BME280;67787;50.074;21.904;2023-03-05T13:46:38;98176.42;;;3.07;61.66
36138;BME280;67787;50.074;21.904;2023-03-05T13:49:24;98174.45;;;3.02;61.43
36138;BME280;67787;50.074;21.904;2023-03-05T13:51:55;98169.51;;;2.96;61.15
36138;BME280;67787;50.074;21.904;2023-03-05T13:54:26;98173.23;;;2.89;61.19
36138;BME280;67787;50.074;21.904;2023-03-05T13:57:04;98171.88;;;2.82;61.30
36138;BME280;67787;50.074;21.904;2023-03-05T13:59:34;98173.63;;;2.76;61.03
36138;BME280;67787;50.074;21.904;2023-03-05T14:02:15;98176.30;;;2.68;61.32
36138;BME280;67787;50.074;21.904;2023-03-05T14:04:45;98181.66;;;2.63;61.17
36138;BME280;67787;50.074;21.904;2023-03-05T14:07:28;98189.64;;;2.55;61.29
36138;BME280;67787;50.074;21.904;2023-03-05T14:09:58;98200.23;;;2.36;63.43
36138;BME280;67787;50.074;21.904;2023-03-05T14:14:59;98204.41;;;1.72;64.38
36138;BME280;67787;50.074;21.904;2023-03-05T14:22:42;98191.40;;;1.24;63.83
36138;BME280;67787;50.074;21.904;2023-03-05T14:25:37;98190.67;;;1.17;64.07
36138;BME280;67787;50.074;21.904;2023-03-05T14:30:47;98189.55;;;1.07;63.26
36138;BME280;67787;50.074;21.904;2023-03-05T14:33:23;98190.81;;;1.10;63.54
36138;BME280;67787;50.074;21.904;2023-03-05T14:36:04;98190.75;;;1.08;63.95
36138;BME280;67787;50.074;21.904;2023-03-05T14:38:38;98194.17;;;1.05;64.27
36138;BME280;67787;50.074;21.904;2023-03-05T14:41:28;98191.46;;;1.08;63.86
36138;BME280;67787;50.074;21.904;2023-03-05T14:43:58;98190.51;;;1.13;63.57